createdAt,value
2018-11-02T00:00:41.595Z,1.70
2018-11-02T00:03:10.736Z,1.80
2018-11-02T00:05:39.612Z,1.70
2018-11-02T00:08:09.176Z,1.70
2018-11-02T00:10:38.120Z,1.40
2018-11-02T00:13:07.422Z,1.50
2018-11-02T00:15:36.159Z,1.60
2018-11-02T00:18:04.717Z,1.40
2018-11-02T00:20:33.389Z,1.50
2018-11-02T00:23:02.021Z,1.33
2018-11-02T00:25:30.753Z,1.70
2018-11-02T00:27:59.312Z,1.57
2018-11-02T00:30:27.800Z,1.60
2018-11-02T00:32:56.884Z,1.40
2018-11-02T00:35:25.406Z,1.40
2018-11-02T00:37:54.052Z,1.67
2018-11-02T00:40:22.694Z,1.60
2018-11-02T00:42:51.978Z,1.60
2018-11-02T00:45:20.670Z,1.60
2018-11-02T00:47:49.253Z,2.07
2018-11-02T00:52:53.605Z,1.50
2018-11-02T00:55:22.160Z,1.70
2018-11-02T00:57:51.116Z,1.80
2018-11-02T01:00:26.424Z,1.80
2018-11-02T01:02:55.008Z,1.60
2018-11-02T01:05:23.647Z,1.70
2018-11-02T01:07:52.480Z,1.90
2018-11-02T01:10:27.903Z,1.93
2018-11-02T01:12:56.493Z,2.17
2018-11-02T01:15:25.745Z,2.83
2018-11-02T01:17:54.589Z,2.90
2018-11-02T01:20:23.154Z,2.40
2018-11-02T01:22:55.304Z,2.77
2018-11-02T01:25:23.835Z,2.80
2018-11-02T01:27:52.453Z,2.87
2018-11-02T01:30:21.084Z,2.80
2018-11-02T01:32:49.906Z,3.33
2018-11-02T01:35:18.579Z,3.53
2018-11-02T01:37:47.157Z,3.20
2018-11-02T01:40:15.762Z,3.57
2018-11-02T01:45:18.022Z,2.80
2018-11-02T01:47:46.622Z,3.27
2018-11-02T01:50:15.958Z,3.70
2018-11-02T01:52:44.590Z,3.70
2018-11-02T01:55:13.076Z,3.47
2018-11-02T01:57:41.764Z,3.90
2018-11-02T02:00:10.352Z,4.40
2018-11-02T02:02:38.849Z,5.03
2018-11-02T02:05:07.727Z,4.50
2018-11-02T02:07:36.468Z,5.57
2018-11-02T02:10:05.716Z,5.43
2018-11-02T02:12:34.300Z,5.50
2018-11-02T02:15:02.750Z,6.20
2018-11-02T02:17:31.220Z,6.83
2018-11-02T02:19:59.720Z,6.67
2018-11-02T02:22:28.364Z,6.60
2018-11-02T02:24:56.844Z,7.00
2018-11-02T02:27:26.467Z,7.30
2018-11-02T02:29:55.040Z,6.93
2018-11-02T02:32:23.582Z,8.30
2018-11-02T02:34:52.676Z,8.30
2018-11-02T02:37:21.478Z,8.97
2018-11-02T02:39:50.019Z,8.60
2018-11-02T02:42:18.677Z,8.30
2018-11-02T02:44:47.159Z,8.87
2018-11-02T02:47:15.816Z,8.57
2018-11-02T02:49:44.389Z,8.57
2018-11-02T02:52:12.965Z,8.97
2018-11-02T02:54:41.514Z,8.67
2018-11-02T02:57:10.119Z,9.40
2018-11-02T02:59:38.869Z,9.30
2018-11-02T03:02:07.516Z,10.20
2018-11-02T03:04:36.050Z,10.17
2018-11-02T03:07:04.554Z,10.30
2018-11-02T03:09:33.190Z,10.03
2018-11-02T03:12:01.906Z,10.77
2018-11-02T03:14:30.674Z,11.50
2018-11-02T03:16:59.341Z,11.40
2018-11-02T03:19:28.047Z,10.73
2018-11-02T03:21:56.581Z,11.20
2018-11-02T03:24:25.162Z,11.43
2018-11-02T03:26:53.741Z,11.75
2018-11-02T03:29:22.644Z,12.23
2018-11-02T03:31:51.457Z,11.97
2018-11-02T03:34:19.960Z,12.30
2018-11-02T03:36:48.594Z,12.40
2018-11-02T03:39:17.064Z,12.53
2018-11-02T03:41:45.543Z,12.67
2018-11-02T03:44:14.018Z,13.30
2018-11-02T03:46:42.596Z,12.00
2018-11-02T03:49:11.228Z,12.90
2018-11-02T03:51:39.899Z,12.70
2018-11-02T03:54:08.567Z,12.57
2018-11-02T03:56:37.278Z,14.67
2018-11-02T03:59:06.189Z,13.60
2018-11-02T04:01:35.118Z,13.13
2018-11-02T04:04:03.625Z,13.80
2018-11-02T04:06:32.311Z,13.03
2018-11-02T04:09:01.559Z,13.77
2018-11-02T04:11:30.130Z,14.17
2018-11-02T04:13:58.769Z,12.90
2018-11-02T04:16:27.415Z,13.77
2018-11-02T04:18:56.510Z,13.97
2018-11-02T04:21:25.209Z,14.57
2018-11-02T04:23:53.678Z,14.30
2018-11-02T04:26:22.333Z,14.07
2018-11-02T04:28:50.809Z,14.93
2018-11-02T04:31:19.285Z,14.23
2018-11-02T04:33:47.969Z,13.60
2018-11-02T04:36:16.648Z,13.43
2018-11-02T04:38:45.447Z,13.87
2018-11-02T04:41:14.053Z,13.47
2018-11-02T04:43:43.332Z,13.30
2018-11-02T04:46:12.073Z,13.20
2018-11-02T04:48:40.832Z,13.47
2018-11-02T04:51:09.410Z,12.37
2018-11-02T04:53:37.849Z,13.17
2018-11-02T04:56:06.462Z,13.23
2018-11-02T04:58:34.987Z,13.07
2018-11-02T05:01:04.475Z,12.23
2018-11-02T05:03:33.132Z,12.10
2018-11-02T05:06:01.868Z,11.90
2018-11-02T05:08:30.784Z,12.33
2018-11-02T05:10:59.360Z,12.00
2018-11-02T05:13:28.141Z,12.97
2018-11-02T05:15:56.901Z,13.20
2018-11-02T05:18:26.131Z,12.13
2018-11-02T05:20:54.976Z,11.80
2018-11-02T05:23:23.523Z,11.83
2018-11-02T05:25:52.089Z,12.07
2018-11-02T05:28:20.645Z,12.27
2018-11-02T05:30:49.217Z,12.43
2018-11-02T05:33:17.903Z,12.17
2018-11-02T05:35:47.704Z,11.70
2018-11-02T05:38:18.882Z,12.50
2018-11-02T05:40:47.422Z,12.47
2018-11-02T05:43:16.012Z,12.90
2018-11-02T05:45:44.448Z,13.27
2018-11-02T05:48:12.946Z,13.47
2018-11-02T05:50:41.388Z,12.80
2018-11-02T05:53:10.220Z,12.53
2018-11-02T05:55:38.733Z,13.13
2018-11-02T05:58:07.405Z,12.60
2018-11-02T06:00:37.069Z,13.47
2018-11-02T06:03:05.935Z,13.23
2018-11-02T06:05:34.510Z,13.10
2018-11-02T06:08:03.312Z,14.30
2018-11-02T06:10:31.644Z,12.67
2018-11-02T06:13:00.598Z,14.13
2018-11-02T06:15:29.100Z,12.73
2018-11-02T06:17:57.524Z,13.73
2018-11-02T06:20:25.952Z,13.07
2018-11-02T06:22:54.374Z,13.33
2018-11-02T06:25:23.836Z,13.10
2018-11-02T06:27:52.336Z,13.57
2018-11-02T06:30:21.781Z,14.23
2018-11-02T06:32:50.367Z,12.90
2018-11-02T06:35:19.054Z,13.67
2018-11-02T06:37:47.541Z,13.67
2018-11-02T06:40:16.202Z,14.00
2018-11-02T06:42:44.634Z,13.40
2018-11-02T06:45:13.779Z,13.63
2018-11-02T06:47:42.681Z,13.03
2018-11-02T06:50:11.872Z,13.07
2018-11-02T06:52:40.756Z,14.13
2018-11-02T06:55:09.799Z,13.50
2018-11-02T06:57:49.274Z,13.83
2018-11-02T07:00:32.309Z,14.47
2018-11-02T07:03:22.528Z,14.80
2018-11-02T07:05:57.374Z,14.73
2018-11-02T07:14:11.360Z,15.23
2018-11-02T07:16:54.505Z,15.50
2018-11-02T10:40:17.872Z,7.62
2018-11-02T10:42:55.162Z,6.37
2018-11-02T10:45:30.603Z,7.17
2018-11-02T10:47:59.759Z,6.80
2018-11-02T10:50:28.659Z,7.50
2018-11-02T10:52:57.582Z,6.27
2018-11-02T10:55:26.424Z,5.57
2018-11-02T10:57:55.125Z,4.77
2018-11-02T11:00:29.080Z,5.10
2018-11-02T11:02:57.806Z,4.90
2018-11-02T11:05:26.344Z,5.20
2018-11-02T11:07:56.714Z,4.37
2018-11-02T11:10:25.565Z,5.00
2018-11-02T11:12:55.097Z,4.53
2018-11-02T11:15:23.520Z,4.63
2018-11-02T11:17:52.116Z,4.00
2018-11-02T11:20:20.773Z,3.80
2018-11-02T11:22:50.228Z,3.70
2018-11-02T11:25:18.889Z,3.37
2018-11-02T11:27:47.606Z,4.10
2018-11-02T11:30:17.998Z,3.67
2018-11-02T11:32:47.629Z,3.60
2018-11-02T11:37:53.129Z,3.73
2018-11-02T11:40:22.279Z,3.30
2018-11-02T11:42:50.809Z,3.57
2018-11-02T11:45:19.840Z,3.50
2018-11-02T11:47:49.578Z,3.73
2018-11-02T11:50:20.076Z,3.80
2018-11-02T11:52:49.921Z,3.97
2018-11-02T11:55:18.793Z,3.60
2018-11-02T11:57:47.666Z,4.03
2018-11-02T12:00:18.670Z,4.23
2018-11-02T12:02:48.133Z,4.20
2018-11-02T12:05:18.251Z,20.83
2018-11-02T12:07:47.192Z,3.83
2018-11-02T12:10:19.139Z,5.90
2018-11-02T12:12:47.621Z,3.63
2018-11-02T12:15:18.782Z,3.57
2018-11-02T12:17:47.724Z,3.23
2018-11-02T12:20:25.785Z,3.50
2018-11-02T12:22:59.894Z,3.13
2018-11-02T12:25:28.675Z,2.60
2018-11-02T12:27:57.282Z,2.70
2018-11-02T12:30:25.875Z,2.50
2018-11-02T12:32:54.459Z,2.47
2018-11-02T12:35:24.495Z,2.50
2018-11-02T12:37:53.250Z,2.10
2018-11-02T12:40:23.095Z,2.22
2018-11-02T12:42:52.953Z,2.43
2018-11-02T12:45:22.353Z,1.77
2018-11-02T12:47:50.891Z,1.77
2018-11-02T12:50:22.168Z,2.03
2018-11-02T12:52:51.785Z,1.70
2018-11-02T12:55:20.791Z,2.30
2018-11-02T12:57:52.803Z,1.40
2018-11-02T13:00:22.617Z,1.90
2018-11-02T13:02:52.041Z,1.80
2018-11-02T13:05:20.649Z,1.52
2018-11-02T13:07:50.421Z,1.70
2018-11-02T13:10:20.299Z,1.70
2018-11-02T13:12:48.980Z,1.98
2018-11-02T13:15:19.803Z,1.73
2018-11-02T13:17:52.475Z,1.70
2018-11-02T13:20:21.719Z,1.70
2018-11-02T13:22:50.998Z,1.50
2018-11-02T13:25:20.884Z,1.40
2018-11-02T13:27:50.488Z,1.50
2018-11-02T13:30:19.173Z,1.20
2018-11-02T13:32:48.462Z,1.30
2018-11-02T13:35:18.329Z,1.20
2018-11-02T13:37:47.588Z,1.42
2018-11-02T13:40:17.227Z,1.43
2018-11-02T13:42:45.881Z,1.15
2018-11-02T13:45:17.392Z,1.00
2018-11-02T13:47:46.179Z,1.30
2018-11-02T13:50:14.957Z,1.40
2018-11-02T13:52:44.455Z,1.17
2018-11-02T13:55:13.439Z,1.20
2018-11-02T13:57:43.254Z,1.70
2018-11-02T14:00:13.475Z,1.30
2018-11-02T14:02:43.163Z,1.82
2018-11-02T14:05:13.094Z,1.30
2018-11-02T14:07:42.605Z,1.00
2018-11-02T14:10:12.002Z,0.97
2018-11-02T14:12:41.105Z,1.13
2018-11-02T14:15:15.381Z,1.10
2018-11-02T14:17:44.310Z,1.63
2018-11-02T14:20:16.837Z,1.17
2018-11-02T14:22:45.634Z,1.20
2018-11-02T14:25:15.681Z,1.20
2018-11-02T14:27:44.510Z,1.57
2018-11-02T14:30:14.525Z,1.40
2018-11-02T14:32:43.329Z,1.57
2018-11-02T14:35:11.878Z,1.87
2018-11-02T14:37:40.415Z,1.33
2018-11-02T14:40:10.489Z,1.50
2018-11-02T14:42:39.980Z,1.50
2018-11-02T14:45:10.402Z,1.50
2018-11-02T14:47:38.884Z,1.60
2018-11-02T14:50:09.065Z,1.53
2018-11-02T14:52:38.121Z,1.87
2018-11-02T14:55:07.030Z,1.53
2018-11-02T14:57:36.112Z,1.50
2018-11-02T15:00:06.307Z,1.83
2018-11-02T15:02:34.825Z,2.10
2018-11-02T15:05:03.837Z,2.80
2018-11-02T15:07:33.013Z,2.10
2018-11-02T15:10:01.781Z,1.67
2018-11-02T15:12:30.881Z,1.90
2018-11-02T15:14:59.550Z,1.90
2018-11-02T15:17:28.104Z,1.70
2018-11-02T15:19:57.073Z,1.73
2018-11-02T15:22:25.795Z,1.60
2018-11-02T15:24:54.896Z,1.90
2018-11-02T15:27:23.374Z,2.07
2018-11-02T15:29:52.020Z,1.70
2018-11-02T15:32:21.157Z,1.50
2018-11-02T15:34:50.481Z,1.87
2018-11-02T15:37:19.021Z,1.67
2018-11-02T15:39:48.719Z,2.13
2018-11-02T15:42:17.153Z,1.90
2018-11-02T15:44:45.880Z,1.93
2018-11-02T15:47:14.290Z,2.10
2018-11-02T15:49:42.792Z,1.90
2018-11-02T15:52:11.549Z,1.93
2018-11-02T15:54:40.091Z,2.07
2018-11-02T15:57:08.751Z,2.13
2018-11-02T15:59:37.461Z,2.30
2018-11-02T16:02:06.757Z,2.17
2018-11-02T16:07:09.896Z,2.07
2018-11-02T16:09:38.418Z,2.63
2018-11-02T16:12:06.865Z,3.17
2018-11-02T16:14:35.561Z,2.70
2018-11-02T16:17:04.160Z,3.23
2018-11-02T16:19:32.664Z,2.70
2018-11-02T16:22:07.824Z,3.00
2018-11-02T16:24:36.330Z,3.07
2018-11-02T16:27:04.832Z,2.80
2018-11-02T16:29:33.387Z,4.53
2018-11-02T16:32:01.956Z,3.93
2018-11-02T16:34:30.833Z,3.43
2018-11-02T16:36:59.389Z,2.83
2018-11-02T16:39:28.104Z,3.23
2018-11-02T16:41:56.751Z,3.03
2018-11-02T16:44:29.234Z,3.47
2018-11-02T16:46:57.737Z,3.60
2018-11-02T16:52:00.591Z,3.33
2018-11-02T16:54:29.132Z,3.03
2018-11-02T16:56:57.669Z,3.73
2018-11-02T16:59:26.214Z,3.60
2018-11-02T17:01:54.768Z,4.57
2018-11-02T17:04:23.306Z,4.00
2018-11-02T17:06:52.057Z,3.93
2018-11-02T17:09:20.502Z,4.10
2018-11-02T17:11:49.106Z,3.90
2018-11-02T17:14:17.743Z,4.23
2018-11-02T17:16:46.497Z,4.60
2018-11-02T17:19:14.935Z,3.70
2018-11-02T17:21:43.623Z,4.10
2018-11-02T17:24:11.992Z,3.73
2018-11-02T17:26:40.492Z,4.10
2018-11-02T17:29:09.023Z,3.97
2018-11-02T17:31:37.618Z,4.10
2018-11-02T17:36:41.891Z,4.00
2018-11-02T17:39:11.323Z,4.50
2018-11-02T17:41:40.152Z,4.17
2018-11-02T17:44:08.857Z,4.20
2018-11-02T17:46:37.308Z,4.73
2018-11-02T17:49:06.127Z,4.07
2018-11-02T17:51:35.046Z,3.77
2018-11-02T17:54:04.779Z,3.97
2018-11-02T17:56:33.331Z,4.20
2018-11-02T17:59:01.949Z,4.60
2018-11-02T18:01:30.497Z,4.13
2018-11-02T18:03:58.983Z,4.93
2018-11-02T18:06:28.413Z,4.70
2018-11-02T18:08:58.996Z,5.13
2018-11-02T18:11:27.501Z,5.37
2018-11-02T18:13:56.259Z,4.97
2018-11-02T18:16:24.821Z,6.00
2018-11-02T18:18:53.455Z,4.93
2018-11-02T18:21:22.544Z,6.50
2018-11-02T18:23:51.004Z,5.43
2018-11-02T18:26:19.497Z,5.57
2018-11-02T18:28:48.052Z,6.60
2018-11-02T18:31:16.646Z,7.10
2018-11-02T18:33:45.521Z,7.00
2018-11-02T18:36:14.129Z,6.57
2018-11-02T18:38:42.890Z,6.87
2018-11-02T18:41:11.433Z,6.60
2018-11-02T18:43:39.874Z,5.73
2018-11-02T18:46:08.420Z,5.87
2018-11-02T18:48:37.030Z,6.17
2018-11-02T18:51:06.471Z,6.10
2018-11-02T18:53:35.023Z,5.67
2018-11-02T18:56:03.716Z,6.67
2018-11-02T18:58:32.258Z,5.90
2018-11-02T19:01:00.865Z,6.33
2018-11-02T19:03:29.745Z,6.33
2018-11-02T19:05:58.618Z,5.90
2018-11-02T19:08:27.181Z,6.30
2018-11-02T19:10:55.761Z,6.60
2018-11-02T19:13:24.578Z,6.10
2018-11-02T19:15:53.085Z,6.60
2018-11-02T19:18:21.546Z,6.37
2018-11-02T19:20:50.121Z,6.13
2018-11-02T19:23:18.808Z,6.17
2018-11-02T19:25:47.374Z,6.77
2018-11-02T19:28:16.102Z,6.50
2018-11-02T19:30:44.561Z,6.43
2018-11-02T19:33:13.163Z,6.23
2018-11-02T19:35:41.679Z,6.57
2018-11-02T19:38:10.547Z,6.53
2018-11-02T19:40:39.091Z,7.23
2018-11-02T19:43:07.787Z,6.70
2018-11-02T19:45:36.308Z,7.27
2018-11-02T19:48:06.531Z,7.47
2018-11-02T19:50:39.011Z,7.00
2018-11-02T19:53:08.428Z,7.30
2018-11-02T19:55:37.321Z,7.63
2018-11-02T19:58:06.585Z,8.60
2018-11-02T20:00:35.130Z,7.43
2018-11-02T20:03:03.869Z,7.83
2018-11-02T20:05:32.627Z,7.17
2018-11-02T20:08:01.906Z,6.50
2018-11-02T20:10:30.563Z,6.37
2018-11-02T20:13:05.969Z,6.60
2018-11-02T20:15:34.504Z,6.47
2018-11-02T20:18:03.944Z,6.57
2018-11-02T20:20:32.654Z,6.33
2018-11-02T20:23:01.894Z,7.03
2018-11-02T20:25:31.261Z,6.70
2018-11-02T20:27:59.831Z,7.00
2018-11-02T20:30:28.456Z,6.80
2018-11-02T20:32:57.440Z,6.97
2018-11-02T20:35:26.370Z,7.10
2018-11-02T20:37:55.845Z,6.70
2018-11-02T20:40:24.441Z,6.70
2018-11-02T20:42:52.931Z,7.10
2018-11-02T20:45:21.532Z,6.53
2018-11-02T20:47:52.625Z,7.10
2018-11-02T20:50:21.457Z,7.43
2018-11-02T20:52:50.592Z,7.87
2018-11-02T20:55:19.337Z,7.53
2018-11-02T20:57:48.057Z,7.60
2018-11-02T21:00:18.327Z,7.90
2018-11-02T21:02:47.086Z,7.37
2018-11-02T21:05:16.910Z,7.27
2018-11-02T21:07:46.453Z,8.43
2018-11-02T21:10:16.552Z,6.57
2018-11-02T21:12:45.872Z,7.27
2018-11-02T21:15:24.177Z,7.43
2018-11-02T21:38:02.279Z,8.80
2018-11-02T21:40:31.010Z,8.07
2018-11-02T21:43:01.275Z,7.87
2018-11-02T21:45:29.781Z,7.70
2018-11-02T21:47:58.451Z,8.20
2018-11-02T21:50:27.061Z,8.17
2018-11-02T21:52:55.653Z,8.47
2018-11-02T21:55:24.280Z,8.50
2018-11-02T21:57:52.923Z,8.50
2018-11-02T22:00:22.740Z,8.60
2018-11-02T22:02:51.369Z,9.27
2018-11-02T22:05:20.534Z,8.90
2018-11-02T22:07:50.409Z,9.10
2018-11-02T22:12:53.440Z,8.73
2018-11-02T22:15:22.266Z,9.10
2018-11-02T22:17:50.964Z,9.60
2018-11-02T22:20:19.926Z,12.40
2018-11-02T22:22:48.503Z,10.90
2018-11-02T22:25:17.230Z,11.10
2018-11-02T22:27:46.634Z,11.37
2018-11-02T22:30:16.403Z,12.33
2018-11-02T22:32:44.921Z,10.57
2018-11-02T22:35:14.281Z,12.17
2018-11-02T22:37:42.979Z,12.87
2018-11-02T22:40:12.380Z,11.67
2018-11-02T22:42:41.996Z,12.30
2018-11-02T22:45:11.771Z,11.97
2018-11-02T22:47:40.623Z,11.40
2018-11-02T22:50:09.793Z,12.17
2018-11-02T22:52:38.686Z,12.20
2018-11-02T22:55:08.647Z,11.80
2018-11-02T22:57:37.142Z,10.63
2018-11-02T23:00:12.917Z,11.47
2018-11-02T23:02:41.431Z,12.10
2018-11-02T23:05:10.768Z,11.80
2018-11-02T23:07:39.260Z,11.30
2018-11-02T23:10:08.204Z,12.23
2018-11-02T23:12:36.763Z,12.40
2018-11-02T23:15:06.802Z,11.43
2018-11-02T23:17:35.235Z,11.63
2018-11-02T23:20:03.980Z,10.67
2018-11-02T23:22:32.518Z,10.90
2018-11-02T23:25:00.998Z,11.43
2018-11-02T23:27:30.088Z,10.67
2018-11-02T23:29:58.760Z,11.63
2018-11-02T23:32:27.256Z,11.10
2018-11-02T23:35:02.587Z,11.77
2018-11-02T23:37:31.772Z,12.07
2018-11-02T23:40:00.394Z,12.40
2018-11-02T23:42:29.089Z,11.83
2018-11-02T23:44:57.604Z,11.70
2018-11-02T23:47:26.133Z,12.23
2018-11-02T23:49:54.976Z,10.80
2018-11-02T23:52:24.277Z,11.47
2018-11-02T23:54:53.372Z,11.33
2018-11-02T23:57:28.245Z,9.40
2018-11-02T23:59:56.787Z,9.13
